createdAt,value
2019-01-13T00:00:33.479Z,991.7
2019-01-13T00:01:34.843Z,991.8
2019-01-13T00:02:36.229Z,991.7
2019-01-13T00:03:37.604Z,991.7
2019-01-13T00:04:38.977Z,991.7
2019-01-13T00:05:40.351Z,991.7
2019-01-13T00:06:41.735Z,991.7
2019-01-13T00:07:43.146Z,991.7
2019-01-13T00:08:44.476Z,991.6
2019-01-13T00:09:45.851Z,991.7
2019-01-13T00:10:47.250Z,991.6
2019-01-13T00:11:48.661Z,991.6
2019-01-13T00:12:50.018Z,991.6
2019-01-13T00:13:51.378Z,991.7
2019-01-13T00:14:53.251Z,991.7
2019-01-13T00:15:54.094Z,991.7
2019-01-13T00:16:55.461Z,991.6
2019-01-13T00:17:56.822Z,991.6
2019-01-13T00:18:58.235Z,991.5
2019-01-13T00:19:59.646Z,991.6
2019-01-13T00:21:01.046Z,991.6
2019-01-13T00:22:02.445Z,991.5
2019-01-13T00:23:03.818Z,991.6
2019-01-13T00:24:05.200Z,991.5
2019-01-13T00:25:06.563Z,991.5
2019-01-13T00:26:07.929Z,991.5
2019-01-13T00:27:09.297Z,991.5
2019-01-13T00:28:10.683Z,991.5
2019-01-13T00:29:12.098Z,991.5
2019-01-13T00:30:19.094Z,991.5
2019-01-13T00:31:14.806Z,991.6
2019-01-13T00:32:16.166Z,991.6
2019-01-13T00:33:17.551Z,991.6
2019-01-13T00:34:18.928Z,991.5
2019-01-13T00:35:20.288Z,991.6
2019-01-13T00:36:21.654Z,991.6
2019-01-13T00:37:23.020Z,991.5
2019-01-13T00:38:24.442Z,991.6
2019-01-13T00:39:26.563Z,991.6
2019-01-13T00:40:27.952Z,991.6
2019-01-13T00:41:29.310Z,991.6
2019-01-13T00:42:30.682Z,991.6
2019-01-13T00:43:32.046Z,991.5
2019-01-13T00:44:33.419Z,991.5
2019-01-13T00:45:34.786Z,991.5
2019-01-13T00:46:36.176Z,991.6
2019-01-13T00:47:37.548Z,991.6
2019-01-13T00:48:38.911Z,991.6
2019-01-13T00:49:40.275Z,991.6
2019-01-13T00:50:41.649Z,991.6
2019-01-13T00:51:43.033Z,991.6
2019-01-13T00:52:44.661Z,991.6
2019-01-13T00:53:46.022Z,991.6
2019-01-13T00:54:47.387Z,991.6
2019-01-13T00:55:48.763Z,991.6
2019-01-13T00:56:50.894Z,991.6
2019-01-13T00:57:52.279Z,991.6
2019-01-13T00:58:53.675Z,991.6
2019-01-13T00:59:55.042Z,991.6
2019-01-13T01:00:56.417Z,991.6
2019-01-13T01:01:57.796Z,991.6
2019-01-13T01:02:59.174Z,991.6
2019-01-13T01:04:00.528Z,991.6
2019-01-13T01:05:01.903Z,991.6
2019-01-13T01:06:03.279Z,991.6
2019-01-13T01:07:04.645Z,991.6
2019-01-13T01:08:06.044Z,991.6
2019-01-13T01:09:07.410Z,991.6
2019-01-13T01:10:08.804Z,991.6
2019-01-13T01:11:10.326Z,991.6
2019-01-13T01:12:11.725Z,991.6
2019-01-13T01:13:13.094Z,991.6
2019-01-13T01:14:14.508Z,991.7
2019-01-13T01:15:15.889Z,991.6
2019-01-13T01:16:17.263Z,991.6
2019-01-13T01:17:18.647Z,991.6
2019-01-13T01:18:19.993Z,991.6
2019-01-13T01:19:21.370Z,991.7
2019-01-13T01:20:22.742Z,991.6
2019-01-13T01:21:24.124Z,991.6
2019-01-13T01:22:25.488Z,991.6
2019-01-13T01:23:26.870Z,991.6
2019-01-13T01:24:28.249Z,991.7
2019-01-13T01:25:29.618Z,991.7
2019-01-13T01:26:30.993Z,991.7
2019-01-13T01:27:32.371Z,991.8
2019-01-13T01:28:33.736Z,991.8
2019-01-13T01:29:35.102Z,991.8
2019-01-13T01:30:36.469Z,991.8
2019-01-13T01:31:37.857Z,991.8
2019-01-13T01:32:39.226Z,991.8
2019-01-13T01:33:40.604Z,991.8
2019-01-13T01:34:41.971Z,991.8
2019-01-13T01:35:43.963Z,991.9
2019-01-13T01:36:45.127Z,991.9
2019-01-13T01:37:46.475Z,991.9
2019-01-13T01:38:47.852Z,992.0
2019-01-13T01:39:49.222Z,992.0
2019-01-13T01:40:50.585Z,992.0
2019-01-13T01:41:51.959Z,992.0
2019-01-13T01:42:53.323Z,992.1
2019-01-13T01:43:54.687Z,992.0
2019-01-13T01:44:56.047Z,992.1
2019-01-13T01:45:57.422Z,992.0
2019-01-13T01:46:58.803Z,992.1
2019-01-13T01:48:00.177Z,992.1
2019-01-13T01:49:01.553Z,992.0
2019-01-13T01:50:02.912Z,992.0
2019-01-13T01:51:04.320Z,992.0
2019-01-13T01:52:05.686Z,992.0
2019-01-13T01:53:07.075Z,992.0
2019-01-13T01:54:08.446Z,992.0
2019-01-13T01:55:09.864Z,992.0
2019-01-13T01:56:11.259Z,992.1
2019-01-13T01:57:12.629Z,992.0
2019-01-13T01:58:14.006Z,992.1
2019-01-13T01:59:15.389Z,992.1
2019-01-13T02:00:16.743Z,992.1
2019-01-13T02:01:19.082Z,992.1
2019-01-13T02:02:20.443Z,992.1
2019-01-13T02:03:21.821Z,992.1
2019-01-13T02:04:23.224Z,992.1
2019-01-13T02:05:24.552Z,992.2
2019-01-13T02:06:25.914Z,992.2
2019-01-13T02:07:27.296Z,992.1
2019-01-13T02:08:28.685Z,992.2
2019-01-13T02:09:29.998Z,992.2
2019-01-13T02:10:32.289Z,992.1
2019-01-13T02:11:34.061Z,992.1
2019-01-13T02:12:35.426Z,992.2
2019-01-13T02:13:36.797Z,992.2
2019-01-13T02:14:38.166Z,992.2
2019-01-13T02:15:39.537Z,992.2
2019-01-13T02:16:41.739Z,992.2
2019-01-13T02:17:43.106Z,992.3
2019-01-13T02:18:44.493Z,992.2
2019-01-13T02:19:45.855Z,992.2
2019-01-13T02:20:47.232Z,992.2
2019-01-13T02:21:48.633Z,992.2
2019-01-13T02:22:49.999Z,992.2
2019-01-13T02:23:51.375Z,992.1
2019-01-13T02:24:52.763Z,992.1
2019-01-13T02:25:54.136Z,992.1
2019-01-13T02:26:55.503Z,992.0
2019-01-13T02:27:56.907Z,992.0
2019-01-13T02:28:58.279Z,992.0
2019-01-13T02:29:59.651Z,992.0
2019-01-13T02:31:01.025Z,992.0
2019-01-13T02:32:02.410Z,991.9
2019-01-13T02:33:03.798Z,991.9
2019-01-13T02:34:05.162Z,991.9
2019-01-13T02:35:06.564Z,991.9
2019-01-13T02:36:07.939Z,991.9
2019-01-13T02:37:09.296Z,991.9
2019-01-13T02:38:10.677Z,991.9
2019-01-13T02:39:12.033Z,991.9
2019-01-13T02:40:13.485Z,991.8
2019-01-13T02:41:14.854Z,991.8
2019-01-13T02:42:16.224Z,991.9
2019-01-13T02:43:17.582Z,991.8
2019-01-13T02:44:18.958Z,991.8
2019-01-13T02:45:20.326Z,991.9
2019-01-13T02:46:21.731Z,991.8
2019-01-13T02:47:23.106Z,991.8
2019-01-13T02:48:24.473Z,991.8
2019-01-13T02:49:25.837Z,991.7
2019-01-13T02:50:27.207Z,991.8
2019-01-13T02:51:28.606Z,991.7
2019-01-13T02:52:29.979Z,991.7
2019-01-13T02:53:31.347Z,991.8
2019-01-13T02:54:32.707Z,991.7
2019-01-13T02:55:34.078Z,991.7
2019-01-13T02:56:35.442Z,991.7
2019-01-13T02:57:36.817Z,991.7
2019-01-13T02:58:38.181Z,991.7
2019-01-13T02:59:39.609Z,991.7
2019-01-13T03:00:40.983Z,991.7
2019-01-13T03:01:42.363Z,991.6
2019-01-13T03:02:43.731Z,991.6
2019-01-13T03:03:45.085Z,991.6
2019-01-13T03:04:46.470Z,991.6
2019-01-13T03:05:47.865Z,991.6
2019-01-13T03:06:49.323Z,991.6
2019-01-13T03:07:50.689Z,991.6
2019-01-13T03:08:52.046Z,991.7
2019-01-13T03:09:53.412Z,991.6
2019-01-13T03:10:54.773Z,991.7
2019-01-13T03:11:56.139Z,991.7
2019-01-13T03:12:57.516Z,991.6
2019-01-13T03:13:58.887Z,991.7
2019-01-13T03:15:00.288Z,991.7
2019-01-13T03:16:01.640Z,991.7
2019-01-13T03:17:03.036Z,991.7
2019-01-13T03:18:04.402Z,991.7
2019-01-13T03:19:05.766Z,991.6
2019-01-13T03:20:07.142Z,991.6
2019-01-13T03:21:08.520Z,991.6
2019-01-13T03:22:09.898Z,991.7
2019-01-13T03:23:11.259Z,991.7
2019-01-13T03:24:12.630Z,991.6
2019-01-13T03:25:14.026Z,991.6
2019-01-13T03:26:15.413Z,991.6
2019-01-13T03:27:16.801Z,991.6
2019-01-13T03:28:18.225Z,991.5
2019-01-13T03:29:19.584Z,991.5
2019-01-13T03:30:20.964Z,991.5
2019-01-13T03:31:22.336Z,991.6
2019-01-13T03:32:23.686Z,991.5
2019-01-13T03:33:25.059Z,991.6
2019-01-13T03:34:26.426Z,991.7
2019-01-13T03:35:27.791Z,991.7
2019-01-13T03:36:29.188Z,991.7
2019-01-13T03:37:30.552Z,991.6
2019-01-13T03:38:31.911Z,991.6
2019-01-13T03:39:33.278Z,991.6
2019-01-13T03:40:34.649Z,991.5
2019-01-13T03:41:36.010Z,991.6
2019-01-13T03:42:37.390Z,991.5
2019-01-13T03:43:38.747Z,991.5
2019-01-13T03:44:40.125Z,991.4
2019-01-13T03:45:41.515Z,991.4
2019-01-13T03:46:42.878Z,991.4
2019-01-13T03:47:44.250Z,991.4
2019-01-13T03:48:45.619Z,991.3
2019-01-13T03:49:46.990Z,991.3
2019-01-13T03:50:48.362Z,991.2
2019-01-13T03:51:49.732Z,991.3
2019-01-13T03:52:53.151Z,991.3
2019-01-13T03:53:52.431Z,991.3
2019-01-13T03:54:53.798Z,991.2
2019-01-13T03:55:55.168Z,991.2
2019-01-13T03:56:56.785Z,991.2
2019-01-13T03:57:58.712Z,991.2
2019-01-13T03:59:00.090Z,991.2
2019-01-13T04:00:01.480Z,991.2
2019-01-13T04:01:02.853Z,991.2
2019-01-13T04:02:04.233Z,991.2
2019-01-13T04:03:05.588Z,991.2
2019-01-13T04:04:06.948Z,991.2
2019-01-13T04:05:08.319Z,991.2
2019-01-13T04:06:09.687Z,991.2
2019-01-13T04:07:11.068Z,991.1
2019-01-13T04:08:12.425Z,991.0
2019-01-13T04:09:13.807Z,991.0
2019-01-13T04:10:15.163Z,990.9
2019-01-13T04:11:16.541Z,990.9
2019-01-13T04:12:17.921Z,990.9
2019-01-13T04:13:19.322Z,990.9
2019-01-13T04:14:20.676Z,990.9
2019-01-13T04:15:22.075Z,990.9
2019-01-13T04:16:23.991Z,990.9
2019-01-13T04:17:25.364Z,990.8
2019-01-13T04:18:26.731Z,990.8
2019-01-13T04:19:28.116Z,990.8
2019-01-13T04:20:29.495Z,990.8
2019-01-13T04:21:30.865Z,990.8
2019-01-13T04:22:32.232Z,990.8
2019-01-13T04:23:33.704Z,990.8
2019-01-13T04:24:35.071Z,990.9
2019-01-13T04:25:36.443Z,990.9
2019-01-13T04:26:37.807Z,990.9
2019-01-13T04:27:39.180Z,990.9
2019-01-13T04:28:40.546Z,991.0
2019-01-13T04:29:41.913Z,990.9
2019-01-13T04:30:43.285Z,991.0
2019-01-13T04:31:44.662Z,991.0
2019-01-13T04:32:46.088Z,991.0
2019-01-13T04:33:47.418Z,990.9
2019-01-13T04:34:48.786Z,990.9
2019-01-13T04:35:50.156Z,990.9
2019-01-13T04:36:51.525Z,990.9
2019-01-13T04:37:52.915Z,990.9
2019-01-13T04:38:54.263Z,990.9
2019-01-13T04:39:55.632Z,990.9
2019-01-13T04:40:57.038Z,990.9
2019-01-13T04:41:58.496Z,990.9
2019-01-13T04:42:59.854Z,991.0
2019-01-13T04:44:01.223Z,991.0
2019-01-13T04:45:02.593Z,990.9
2019-01-13T04:46:03.965Z,990.9
2019-01-13T04:47:05.331Z,990.9
2019-01-13T04:48:06.694Z,990.9
2019-01-13T04:49:08.065Z,991.0
2019-01-13T04:50:09.424Z,991.0
2019-01-13T04:51:10.795Z,991.0
2019-01-13T04:52:12.153Z,991.0
2019-01-13T04:53:14.499Z,991.0
2019-01-13T04:54:15.882Z,991.1
2019-01-13T04:55:19.356Z,991.1
2019-01-13T04:56:19.747Z,991.1
2019-01-13T04:57:21.128Z,991.1
2019-01-13T04:58:22.528Z,991.1
2019-01-13T04:59:23.888Z,991.1
2019-01-13T05:00:25.806Z,991.2
2019-01-13T05:01:34.175Z,991.1
2019-01-13T05:02:29.769Z,991.2
2019-01-13T05:03:31.134Z,991.1
2019-01-13T05:04:32.501Z,991.0
2019-01-13T05:05:33.877Z,991.0
2019-01-13T05:06:35.239Z,991.0
2019-01-13T05:07:36.605Z,991.0
2019-01-13T05:08:37.989Z,991.0
2019-01-13T05:09:39.364Z,991.0
2019-01-13T05:10:40.733Z,991.0
2019-01-13T05:11:42.107Z,991.0
2019-01-13T05:12:43.467Z,990.9
2019-01-13T05:13:44.837Z,990.8
2019-01-13T05:14:46.199Z,990.9
2019-01-13T05:15:47.565Z,990.9
2019-01-13T05:16:48.938Z,990.9
2019-01-13T05:17:50.308Z,990.9
2019-01-13T05:18:51.666Z,990.8
2019-01-13T05:19:53.031Z,990.9
2019-01-13T05:20:54.396Z,990.8
2019-01-13T05:21:55.755Z,990.8
2019-01-13T05:22:57.123Z,990.8
2019-01-13T05:23:58.493Z,990.8
2019-01-13T05:24:59.857Z,990.7
2019-01-13T05:26:01.230Z,990.7
2019-01-13T05:27:02.588Z,990.6
2019-01-13T05:28:03.951Z,990.7
2019-01-13T05:29:05.321Z,990.6
2019-01-13T05:30:06.682Z,990.6
2019-01-13T05:31:08.051Z,990.6
2019-01-13T05:32:09.417Z,990.6
2019-01-13T05:33:10.781Z,990.7
2019-01-13T05:34:12.149Z,990.7
2019-01-13T05:35:13.513Z,990.7
2019-01-13T05:36:14.875Z,990.7
2019-01-13T05:37:16.240Z,990.7
2019-01-13T05:38:17.616Z,990.7
2019-01-13T05:39:18.988Z,990.7
2019-01-13T05:40:20.348Z,990.7
2019-01-13T05:41:21.714Z,990.6
2019-01-13T05:42:23.084Z,990.6
2019-01-13T05:43:24.450Z,990.5
2019-01-13T05:44:25.821Z,990.5
2019-01-13T05:45:27.202Z,990.5
2019-01-13T05:46:28.598Z,990.4
2019-01-13T05:47:29.958Z,990.4
2019-01-13T05:48:31.329Z,990.3
2019-01-13T05:49:32.709Z,990.3
2019-01-13T05:50:34.080Z,990.3
2019-01-13T05:51:36.339Z,990.3
2019-01-13T05:52:37.702Z,990.3
2019-01-13T05:53:39.083Z,990.2
2019-01-13T05:54:41.316Z,990.3
2019-01-13T05:55:42.678Z,990.3
2019-01-13T05:56:44.047Z,990.2
2019-01-13T05:57:45.412Z,990.2
2019-01-13T05:58:46.778Z,990.2
2019-01-13T05:59:48.144Z,990.3
2019-01-13T06:00:49.629Z,990.3
2019-01-13T06:01:50.994Z,990.3
2019-01-13T06:02:52.364Z,990.3
2019-01-13T06:03:53.727Z,990.3
2019-01-13T06:04:55.090Z,990.2
2019-01-13T06:05:56.475Z,990.2
2019-01-13T06:06:57.833Z,990.1
2019-01-13T06:07:59.202Z,990.1
2019-01-13T06:09:00.572Z,990.1
2019-01-13T06:10:01.938Z,990.1
2019-01-13T06:11:03.314Z,990.0
2019-01-13T06:12:04.672Z,990.1
2019-01-13T06:13:06.059Z,990.1
2019-01-13T06:14:07.405Z,990.1
2019-01-13T06:15:08.795Z,990.1
2019-01-13T06:16:10.163Z,990.1
2019-01-13T06:17:11.520Z,990.1
2019-01-13T06:18:12.894Z,990.1
2019-01-13T06:19:14.251Z,990.1
2019-01-13T06:20:16.445Z,990.1
2019-01-13T06:21:17.810Z,990.1
2019-01-13T06:22:19.183Z,990.2
2019-01-13T06:23:20.556Z,990.1
2019-01-13T06:24:21.911Z,990.0
2019-01-13T06:25:24.056Z,990.0
2019-01-13T06:26:25.414Z,990.0
2019-01-13T06:27:26.781Z,990.0
2019-01-13T06:28:28.152Z,990.0
2019-01-13T06:29:29.538Z,990.0
2019-01-13T06:30:31.561Z,990.0
2019-01-13T06:31:32.941Z,990.0
2019-01-13T06:32:34.877Z,990.0
2019-01-13T06:33:36.952Z,990.0
2019-01-13T06:34:38.319Z,990.1
2019-01-13T06:35:39.701Z,990.0
2019-01-13T06:36:41.069Z,990.1
2019-01-13T06:37:53.394Z,990.1
2019-01-13T06:38:54.262Z,990.0
2019-01-13T06:39:55.630Z,990.1
2019-01-13T06:40:57.000Z,990.1
2019-01-13T06:41:58.370Z,990.1
2019-01-13T06:42:59.739Z,990.0
2019-01-13T06:44:01.105Z,990.0
2019-01-13T06:45:02.467Z,990.0
2019-01-13T06:46:03.834Z,990.0
2019-01-13T06:47:05.193Z,989.9
2019-01-13T06:48:06.561Z,989.9
2019-01-13T06:49:07.926Z,989.9
2019-01-13T06:50:09.332Z,989.9
2019-01-13T06:51:10.662Z,989.9
2019-01-13T06:52:12.029Z,989.9
2019-01-13T06:53:13.393Z,989.8
2019-01-13T06:54:14.756Z,989.8
2019-01-13T06:55:16.126Z,989.8
2019-01-13T06:56:17.493Z,989.8
2019-01-13T06:57:18.859Z,989.8
2019-01-13T06:58:20.237Z,989.9
2019-01-13T06:59:21.590Z,989.8
2019-01-13T07:00:22.958Z,989.8
2019-01-13T07:01:24.328Z,989.8
2019-01-13T07:02:25.690Z,989.8
2019-01-13T07:03:27.054Z,989.8
2019-01-13T07:04:28.418Z,989.8
2019-01-13T07:05:29.789Z,989.8
2019-01-13T07:06:31.146Z,989.8
2019-01-13T07:07:32.509Z,989.8
2019-01-13T07:08:33.886Z,989.8
2019-01-13T07:09:35.240Z,989.8
2019-01-13T07:10:36.629Z,989.8
2019-01-13T07:11:38.002Z,989.8
2019-01-13T07:12:39.365Z,989.8
2019-01-13T07:13:40.725Z,989.8
2019-01-13T07:14:42.091Z,989.7
2019-01-13T07:15:43.453Z,989.7
2019-01-13T07:16:44.825Z,989.7
2019-01-13T07:17:46.191Z,989.6
2019-01-13T07:18:47.561Z,989.7
2019-01-13T07:19:48.927Z,989.6
2019-01-13T07:20:50.286Z,989.6
2019-01-13T07:21:51.646Z,989.5
2019-01-13T07:22:53.010Z,989.6
2019-01-13T07:23:54.375Z,989.5
2019-01-13T07:24:55.746Z,989.6
2019-01-13T07:25:57.107Z,989.6
2019-01-13T07:26:58.481Z,989.6
2019-01-13T07:27:59.844Z,989.6
2019-01-13T07:29:01.218Z,989.6
2019-01-13T07:30:02.586Z,989.6
2019-01-13T07:31:03.953Z,989.6
2019-01-13T07:32:10.695Z,989.6
2019-01-13T07:33:06.645Z,989.6
2019-01-13T07:34:08.016Z,989.6
2019-01-13T07:35:09.374Z,989.6
2019-01-13T07:36:10.736Z,989.6
2019-01-13T07:37:12.103Z,989.6
2019-01-13T07:38:13.477Z,989.6
2019-01-13T07:39:14.845Z,989.6
2019-01-13T07:40:16.210Z,989.6
2019-01-13T07:41:17.572Z,989.6
2019-01-13T07:42:18.944Z,989.5
2019-01-13T07:43:20.316Z,989.5
2019-01-13T07:44:21.674Z,989.5
2019-01-13T07:45:23.605Z,989.5
2019-01-13T07:46:24.973Z,989.5
2019-01-13T07:47:26.341Z,989.5
2019-01-13T07:48:27.726Z,989.4
2019-01-13T07:49:29.084Z,989.4
2019-01-13T07:50:30.450Z,989.4
2019-01-13T07:51:31.818Z,989.4
2019-01-13T07:52:33.187Z,989.3
2019-01-13T07:53:34.551Z,989.3
2019-01-13T07:54:35.917Z,989.3
2019-01-13T07:55:37.297Z,989.4
2019-01-13T07:56:38.655Z,989.3
2019-01-13T07:57:40.017Z,989.3
2019-01-13T07:58:41.376Z,989.3
2019-01-13T07:59:42.742Z,989.4
2019-01-13T08:00:44.113Z,989.3
2019-01-13T08:01:45.473Z,989.3
2019-01-13T08:02:46.844Z,989.2
2019-01-13T08:03:48.204Z,989.3
2019-01-13T08:04:49.566Z,989.2
2019-01-13T08:05:50.932Z,989.2
2019-01-13T08:06:52.294Z,989.2
2019-01-13T08:07:53.664Z,989.3
2019-01-13T08:08:55.030Z,989.2
2019-01-13T08:09:56.401Z,989.2
2019-01-13T08:10:57.757Z,989.3
2019-01-13T08:11:59.122Z,989.3
2019-01-13T08:13:00.484Z,989.3
2019-01-13T08:14:01.847Z,989.3
2019-01-13T08:15:03.231Z,989.3
2019-01-13T08:16:04.586Z,989.3
2019-01-13T08:17:05.973Z,989.3
2019-01-13T08:18:07.338Z,989.4
2019-01-13T08:19:08.701Z,989.4
2019-01-13T08:20:10.067Z,989.4
2019-01-13T08:21:11.434Z,989.4
2019-01-13T08:22:12.799Z,989.4
2019-01-13T08:23:14.174Z,989.4
2019-01-13T08:24:15.538Z,989.4
2019-01-13T08:25:16.909Z,989.4
2019-01-13T08:26:18.279Z,989.3
2019-01-13T08:27:19.639Z,989.3
2019-01-13T08:28:21.049Z,989.4
2019-01-13T08:29:22.410Z,989.4
2019-01-13T08:30:23.775Z,989.4
2019-01-13T08:31:25.141Z,989.3
2019-01-13T08:32:26.500Z,989.3
2019-01-13T08:33:27.912Z,989.3
2019-01-13T08:34:29.286Z,989.3
2019-01-13T08:35:30.648Z,989.3
2019-01-13T08:36:32.011Z,989.3
2019-01-13T08:37:33.379Z,989.3
2019-01-13T08:38:34.740Z,989.4
2019-01-13T08:39:36.108Z,989.3
2019-01-13T08:40:37.469Z,989.4
2019-01-13T08:41:38.836Z,989.3
2019-01-13T08:42:40.196Z,989.3
2019-01-13T08:43:41.564Z,989.3
2019-01-13T08:44:42.929Z,989.3
2019-01-13T08:45:50.069Z,989.3
2019-01-13T08:46:45.639Z,989.2
2019-01-13T08:47:47.016Z,989.2
2019-01-13T08:48:48.375Z,989.2
2019-01-13T08:49:49.739Z,989.2
2019-01-13T08:50:51.103Z,989.1
2019-01-13T08:51:52.464Z,989.1
2019-01-13T08:52:53.876Z,989.1
2019-01-13T08:53:55.244Z,989.1
2019-01-13T08:54:56.617Z,989.1
2019-01-13T08:55:57.976Z,989.0
2019-01-13T08:56:59.338Z,989.0
2019-01-13T08:58:00.703Z,989.0
2019-01-13T08:59:02.069Z,989.0
2019-01-13T09:00:03.432Z,989.1
2019-01-13T09:01:04.797Z,989.1
2019-01-13T09:02:06.163Z,989.1
2019-01-13T09:03:07.533Z,989.1
2019-01-13T09:04:08.901Z,989.1
2019-01-13T09:05:10.265Z,989.0
2019-01-13T09:06:11.630Z,989.0
2019-01-13T09:07:12.995Z,989.0
2019-01-13T09:08:14.361Z,989.0
2019-01-13T09:09:15.738Z,989.0
2019-01-13T09:10:17.103Z,989.0
2019-01-13T09:11:18.472Z,988.9
2019-01-13T09:12:19.829Z,989.0
2019-01-13T09:13:21.204Z,989.0
2019-01-13T09:14:22.585Z,988.9
2019-01-13T09:15:23.934Z,988.9
2019-01-13T09:16:25.294Z,989.0
2019-01-13T09:17:26.660Z,989.0
2019-01-13T09:18:28.031Z,988.9
2019-01-13T09:19:29.386Z,989.0
2019-01-13T09:20:30.754Z,989.0
2019-01-13T09:21:32.118Z,989.0
2019-01-13T09:22:33.481Z,988.9
2019-01-13T09:23:34.852Z,988.9
2019-01-13T09:24:36.219Z,989.0
2019-01-13T09:25:37.593Z,989.0
2019-01-13T09:26:39.006Z,988.9
2019-01-13T09:27:40.313Z,988.9
2019-01-13T09:28:41.683Z,988.8
2019-01-13T09:29:43.048Z,988.9
2019-01-13T09:30:44.422Z,988.9
2019-01-13T09:31:45.789Z,988.9
2019-01-13T09:32:47.166Z,988.9
2019-01-13T09:33:48.535Z,988.9
2019-01-13T09:34:49.909Z,988.8
2019-01-13T09:35:51.267Z,988.7
2019-01-13T09:36:52.633Z,988.8
2019-01-13T09:37:54.007Z,988.8
2019-01-13T09:38:55.368Z,988.8
2019-01-13T09:39:56.735Z,988.7
2019-01-13T09:40:58.106Z,988.8
2019-01-13T09:41:59.484Z,988.7
2019-01-13T09:43:00.863Z,988.8
2019-01-13T09:44:02.225Z,988.7
2019-01-13T09:45:03.587Z,988.7
2019-01-13T09:46:04.946Z,988.8
2019-01-13T09:47:06.311Z,988.7
2019-01-13T09:48:07.679Z,988.7
2019-01-13T09:49:09.048Z,988.7
2019-01-13T09:50:10.418Z,988.7
2019-01-13T09:51:11.781Z,988.7
2019-01-13T09:52:13.145Z,988.6
2019-01-13T09:53:14.511Z,988.6
2019-01-13T09:54:15.872Z,988.6
2019-01-13T09:55:17.248Z,988.6
2019-01-13T09:56:18.614Z,988.5
2019-01-13T09:57:19.979Z,988.5
2019-01-13T09:58:21.910Z,988.5
2019-01-13T09:59:23.276Z,988.5
2019-01-13T10:00:24.649Z,988.5
2019-01-13T10:01:26.022Z,988.4
2019-01-13T10:02:27.381Z,988.4
2019-01-13T10:03:28.748Z,988.3
2019-01-13T10:04:30.120Z,988.4
2019-01-13T10:05:31.485Z,988.3
2019-01-13T10:06:33.340Z,988.3
2019-01-13T10:07:34.705Z,988.4
2019-01-13T10:08:36.072Z,988.3
2019-01-13T10:09:37.431Z,988.3
2019-01-13T10:10:38.796Z,988.2
2019-01-13T10:11:40.164Z,988.2
2019-01-13T10:12:41.544Z,988.2
2019-01-13T10:13:42.903Z,988.2
2019-01-13T10:14:44.272Z,988.2
2019-01-13T10:15:45.790Z,988.1
2019-01-13T10:16:46.971Z,988.0
2019-01-13T10:17:48.332Z,988.0
2019-01-13T10:18:49.738Z,988.0
2019-01-13T10:19:51.105Z,987.9
2019-01-13T10:20:52.479Z,987.9
2019-01-13T10:21:53.852Z,987.9
2019-01-13T10:22:55.217Z,987.8
2019-01-13T10:23:56.580Z,987.9
2019-01-13T10:24:57.948Z,987.8
2019-01-13T10:25:59.312Z,987.8
2019-01-13T10:27:00.673Z,987.7
2019-01-13T10:28:02.046Z,987.7
2019-01-13T10:29:03.429Z,987.7
2019-01-13T10:30:04.792Z,987.7
2019-01-13T10:31:06.156Z,987.7
2019-01-13T10:32:07.525Z,987.6
2019-01-13T10:33:08.894Z,987.6
2019-01-13T10:34:10.264Z,987.6
2019-01-13T10:35:11.621Z,987.6
2019-01-13T10:36:12.983Z,987.6
2019-01-13T10:37:14.349Z,987.6
2019-01-13T10:38:15.718Z,987.5
2019-01-13T10:39:17.092Z,987.4
2019-01-13T10:40:18.454Z,987.4
2019-01-13T10:41:19.825Z,987.3
2019-01-13T10:42:21.191Z,987.3
2019-01-13T10:43:22.562Z,987.2
2019-01-13T10:44:23.927Z,987.2
2019-01-13T10:45:25.289Z,987.2
2019-01-13T10:46:26.657Z,987.1
2019-01-13T10:47:28.025Z,987.1
2019-01-13T10:48:30.393Z,987.1
2019-01-13T10:49:30.721Z,987.1
2019-01-13T10:50:32.091Z,987.0
2019-01-13T10:51:33.470Z,987.0
2019-01-13T10:52:34.834Z,987.0
2019-01-13T10:53:36.201Z,987.0
2019-01-13T10:54:37.572Z,987.0
2019-01-13T10:55:38.947Z,986.9
2019-01-13T10:56:40.301Z,987.0
2019-01-13T10:57:41.672Z,986.9
2019-01-13T10:58:43.038Z,986.9
2019-01-13T10:59:44.404Z,986.9
2019-01-13T11:00:45.772Z,986.8
2019-01-13T11:01:47.141Z,986.8
2019-01-13T11:02:48.501Z,986.7
2019-01-13T11:03:49.865Z,986.7
2019-01-13T11:04:51.249Z,986.7
2019-01-13T11:05:52.622Z,986.6
2019-01-13T11:06:53.988Z,986.7
2019-01-13T11:07:55.358Z,986.6
2019-01-13T11:08:56.746Z,986.6
2019-01-13T11:09:58.094Z,986.6
2019-01-13T11:10:59.454Z,986.6
2019-01-13T11:12:00.820Z,986.6
2019-01-13T11:13:02.190Z,986.5
2019-01-13T11:14:03.553Z,986.5
2019-01-13T11:15:04.922Z,986.4
2019-01-13T11:16:06.299Z,986.4
2019-01-13T11:17:07.680Z,986.4
2019-01-13T11:18:09.044Z,986.4
2019-01-13T11:19:10.408Z,986.3
2019-01-13T11:20:11.770Z,986.3
2019-01-13T11:21:13.134Z,986.3
2019-01-13T11:22:14.507Z,986.3
2019-01-13T11:23:15.871Z,986.3
2019-01-13T11:24:17.241Z,986.3
2019-01-13T11:25:18.619Z,986.3
2019-01-13T11:26:19.982Z,986.3
2019-01-13T11:27:21.349Z,986.2
2019-01-13T11:28:22.712Z,986.2
2019-01-13T11:29:24.075Z,986.2
2019-01-13T11:30:25.459Z,986.3
2019-01-13T11:31:26.821Z,986.2
2019-01-13T11:32:28.186Z,986.2
2019-01-13T11:33:29.555Z,986.2
2019-01-13T11:34:30.922Z,986.2
2019-01-13T11:35:32.291Z,986.1
2019-01-13T11:36:33.656Z,986.1
2019-01-13T11:37:35.031Z,986.0
2019-01-13T11:38:36.390Z,986.0
2019-01-13T11:39:37.755Z,986.0
2019-01-13T11:40:39.123Z,986.0
2019-01-13T11:41:40.495Z,986.0
2019-01-13T11:42:41.861Z,985.9
2019-01-13T11:43:43.238Z,986.0
2019-01-13T11:44:44.610Z,985.9
2019-01-13T11:45:45.970Z,985.9
2019-01-13T11:46:47.330Z,985.9
2019-01-13T11:47:48.713Z,985.9
2019-01-13T11:48:50.081Z,985.9
2019-01-13T11:49:51.454Z,985.9
2019-01-13T11:50:52.825Z,985.9
2019-01-13T11:51:54.190Z,985.9
2019-01-13T11:52:55.552Z,985.8
2019-01-13T11:53:56.927Z,985.8
2019-01-13T11:54:58.284Z,985.7
2019-01-13T11:55:59.669Z,985.7
2019-01-13T11:57:01.048Z,985.6
2019-01-13T11:58:02.401Z,985.6
2019-01-13T11:59:03.762Z,985.6
2019-01-13T12:00:05.140Z,985.6
2019-01-13T12:01:06.503Z,985.6
2019-01-13T12:02:07.867Z,985.6
2019-01-13T12:03:16.365Z,985.6
2019-01-13T12:04:10.559Z,985.6
2019-01-13T12:05:11.957Z,985.6
2019-01-13T12:06:13.300Z,985.5
2019-01-13T12:07:14.695Z,985.5
2019-01-13T12:08:16.067Z,985.5
2019-01-13T12:09:17.443Z,985.5
2019-01-13T12:10:18.822Z,985.5
2019-01-13T12:11:20.199Z,985.5
2019-01-13T12:12:21.564Z,985.5
2019-01-13T12:13:22.941Z,985.5
2019-01-13T12:14:24.302Z,985.5
2019-01-13T12:15:25.672Z,985.6
2019-01-13T12:16:27.035Z,985.6
2019-01-13T12:17:28.417Z,985.5
2019-01-13T12:18:29.787Z,985.5
2019-01-13T12:19:31.161Z,985.5
2019-01-13T12:20:32.527Z,985.4
2019-01-13T12:21:33.900Z,985.5
2019-01-13T12:22:35.259Z,985.5
2019-01-13T12:23:36.628Z,985.4
2019-01-13T12:24:37.990Z,985.4
2019-01-13T12:25:39.361Z,985.4
2019-01-13T12:26:40.723Z,985.4
2019-01-13T12:27:42.098Z,985.3
2019-01-13T12:28:43.462Z,985.3
2019-01-13T12:29:44.841Z,985.3
2019-01-13T12:30:46.211Z,985.2
2019-01-13T12:31:47.575Z,985.2
2019-01-13T12:32:48.940Z,985.2
2019-01-13T12:33:50.320Z,985.2
2019-01-13T12:34:51.691Z,985.1
2019-01-13T12:35:53.054Z,985.1
2019-01-13T12:36:54.418Z,985.1
2019-01-13T12:37:55.790Z,985.1
2019-01-13T12:38:57.151Z,985.1
2019-01-13T12:39:58.519Z,985.1
2019-01-13T12:41:00.228Z,985.1
2019-01-13T12:42:01.215Z,985.0
2019-01-13T12:43:02.643Z,985.1
2019-01-13T12:44:03.941Z,985.0
2019-01-13T12:45:05.313Z,984.9
2019-01-13T12:46:06.686Z,984.9
2019-01-13T12:47:08.057Z,984.8
2019-01-13T12:48:09.431Z,984.8
2019-01-13T12:49:10.799Z,984.8
2019-01-13T12:50:12.155Z,984.8
2019-01-13T12:51:14.461Z,984.9
2019-01-13T12:52:15.831Z,984.9
2019-01-13T12:53:17.199Z,984.9
2019-01-13T12:54:18.559Z,984.9
2019-01-13T12:55:19.934Z,984.9
2019-01-13T12:56:21.300Z,984.9
2019-01-13T12:57:22.663Z,984.9
2019-01-13T12:58:24.037Z,984.9
2019-01-13T12:59:25.395Z,984.8
2019-01-13T13:00:27.724Z,984.8
2019-01-13T13:01:29.097Z,984.8
2019-01-13T13:02:30.474Z,984.8
2019-01-13T13:03:32.646Z,984.8
2019-01-13T13:04:34.010Z,984.9
2019-01-13T13:05:35.375Z,984.9
2019-01-13T13:06:36.755Z,984.8
2019-01-13T13:07:38.141Z,984.8
2019-01-13T13:08:39.486Z,984.8
2019-01-13T13:09:40.884Z,984.8
2019-01-13T13:10:42.244Z,984.7